El Palomar, Argentina
Current Conditions -  °F | °C
As of 7:00 AM on Tuesday 21 Oct 2014 (Local Time) from SADF Reporting Station
Clear Clear  
Wind Chill: 61°   Ceiling: Unl
Heat Index: 61°   Visibility: 6mi
Dew Point: 54°   Wind: 3mph
Humidity: 77%   Direction: 320°NW
Pressure: 30.12"   Gusts: NA
Location:  34.6°S, 58.6°W
Report Text: SADF 211000Z 32003KT CAVOK 16/12 Q1020
Loading
Personal Weather Stations






























Interactive Weather Map
Tropical Storm Tracking
New forecast layout! Learn more

10-Day Weather Forecast

Advertisements
Track Severe Weather on mobile